Nearby METAR Reports

 

EGVN - Brize Norton Raf, United Kingdom
Distance from station: SSE 20mi, 32km
Updated: 19/01/2019 10:50
Light rain, Overcast
Light rain, Overcast
 Wind from SE
Wind: SE 10 mph , 17 km/h
Temperature: 4°C
Wind Chill: 0°C
Dew Point: 4°C
Humidity: 100%
Barometer: 1008 hPa
Summary: Light rain
Clouds: Overcast
Visibility: 6 miles , 9 km
Cloud details: Mostly cloudy 122 m
Overcast 183 m
2019/01/19 10:50 EGVN 191050Z 13009KT 9000 -RA BKN004 OVC006 04/04 Q1008 RERA YLO2 TEMPO 6000 -RADZ YLO2
EGTK - Oxford, United Kingdom
Distance from station: SE 22mi, 35km
Updated: 19/01/2019 11:20
Light rain, Overcast
Light rain, Overcast
 Wind from ESE
Wind: ESE 7 mph , 11 km/h
Temperature: 4°C
Wind Chill: 1°C
Dew Point: 3°C
Humidity: 93%
Barometer: 1008 hPa
Summary: Light rain
Clouds: Overcast
Visibility: 4 miles , 6 km
Cloud details: Mostly cloudy 183 m
Overcast 213 m
2019/01/19 11:20 EGTK 191120Z 11006KT 6000 -RA BKN006 OVC007 04/03 Q1008
 
EGBJ - Staverton (priva, United Kingdom
Distance from station: WSW 23mi, 36km
Updated: 19/01/2019 10:50
Light rain, Mostly cloudy
Light rain, Mostly cloudy
 Wind from SE
Wind: SE 6 mph , 9 km/h
Temperature: 6°C
Wind Chill: 4°C
Dew Point: 5°C
Humidity: 93%
Barometer: 1007 hPa
Summary: Light rain
Clouds: Mostly cloudy
Visibility: 6 miles , 10 km
Cloud details: Few Clouds 244 m
Mostly cloudy 335 m
2019/01/19 10:50 EGBJ 191050Z 14005KT 9999 -RA FEW008 BKN011 06/05 Q1007
EGVA - Fairford Raf, United Kingdom
Distance from station: S 27mi, 43km
Updated: 19/01/2019 10:56
Overcast
Overcast
 Wind from ESE
Wind: ESE 10 mph , 17 km/h
Temperature: 5°C
Wind Chill: 2°C
Dew Point: 4°C
Humidity: 93%
Barometer: 1007.1 hPa
Clouds: Overcast
Cloud details: Overcast 213 m
2019/01/19 10:56 EGVA 191056Z AUTO 12009KT M M OVC007 05/04 A2974 RMK AO2 RAE10RAB14E26 SLP077 P0000 T00460042 RVRNO $
 
EGBB - Birmingham Airpo, United Kingdom
Distance from station: N 29mi, 46km
Updated: 19/01/2019 11:20
Light drizzle, Mostly cloudy
Light drizzle, Mostly cloudy
 Wind from SE
Wind: SE 10 mph , 17 km/h
Temperature: 3°C
Wind Chill: -1°C
Dew Point: 3°C
Humidity: 100%
Barometer: 1008 hPa
Summary: Light Drizzle
Clouds: Mostly cloudy
Visibility: 5 miles , 8 km
Cloud details: Mostly cloudy 213 m
2019/01/19 11:20 EGBB 191120Z 13009KT 8000 -DZ BKN007 03/03 Q1008 REDZ
EGUB - Benson Raf, United Kingdom
Distance from station: SE 40mi, 65km
Updated: 19/01/2019 10:50
Overcast
Overcast
 Wind from ESE
Wind: ESE 14 mph , 22 km/h
Temperature: 4°C
Wind Chill: -1°C
Dew Point: 3°C
Humidity: 93%
Barometer: 1008 hPa
Clouds: Overcast
Visibility: 6 miles , 10 km
Cloud details: Partly cloudy 213 m
Overcast 427 m
2019/01/19 10:50 EGUB 191050Z AUTO 12012KT 9999 // SCT007/// OVC014/// 04/03 Q1008
 
EGTC - Cranfield, United Kingdom
Distance from station: E 46mi, 74km
Updated: 18/01/2019 17:50
NOT Current
Clear
Clear
 Wind from SSE
Wind: SSE 10 mph , 17 km/h
Temperature: 4°C
Wind Chill: 0°C
Dew Point: 0°C
Humidity: 75%
Barometer: 1012 hPa
Summary: Clear
Visibility: greater than 7 miles , 10 km
2019/01/18 17:50 EGTC 181750Z 16009KT CAVOK 04/M00 Q1012
EGWC - Cosford Raf, United Kingdom
Distance from station: NNW 46mi, 75km
Updated: 19/01/2019 07:50
NOT Current
Overcast
Overcast
 Wind from SE
Wind: SE 13 mph , 20 km/h
Temperature: 4°C
Wind Chill: -1°C
Dew Point: 3°C
Humidity: 93%
Barometer: 1007 hPa
Clouds: Overcast
Visibility: 6 miles , 10 km
Cloud details: Overcast 244 m
2019/01/19 07:50 EGWC 190750Z 13011KT 9999 OVC008 04/03 Q1007 GRN